Aviation Digital Data Service (ADDS)

Output produced by METARs form (1533 UTC 25 June 2017)
found at http://aviationweather.gov/adds/metars/
 
KJAX 251120Z 2512/2612 23008KT P6SM FEW030 SCT250 
     FM252100 20009KT 6SM -TSRA VCTS SCT030 BKN040CB 
     PROB30 2523/2603 VRB20G30KT 1SM +TSRA BKN015CB 
     FM260400 VRB04KT P6SM SCT020 BKN100